Time;durP1;ratioP1;P1;durP2;ratioP2;P2;SDS_P1;SDS_P2;PMS_P1;PMS_P2;Temp;Humidity;BMP_temperature;BMP_pressure;BME280_temperature;BME280_humidity;BME280_pressure;Samples;Min_cycle;Max_cycle;Signal;HPM_P1;HPM_P2
2021/04/18 00:00:17;;;;;;;0.38;0.38;;;5.90;89.60;;;7.84;78.77;102422.38;4987274;28;100274;-66
2021/04/18 00:02:45;;;;;;;0.52;0.52;;;5.80;89.70;;;7.81;79.36;102425.53;5005969;28;97686;-66
2021/04/18 00:05:16;;;;;;;1.35;0.85;;;5.70;89.80;;;7.73;79.33;102419.78;5006265;28;97136;-66
2021/04/18 00:07:44;;;;;;;0.20;0.20;;;5.70;89.80;;;7.71;80.26;102419.22;5009176;28;97026;-66
2021/04/18 00:10:12;;;;;;;1.63;0.93;;;5.70;90.00;;;7.68;80.07;102415.19;5002218;28;98181;-65
2021/04/18 00:12:40;;;;;;;0.10;0.10;;;5.70;90.00;;;7.71;80.16;102411.22;5000172;28;98852;-66
2021/04/18 00:15:13;;;;;;;0.30;0.30;;;5.70;90.00;;;7.68;79.46;102402.88;5003163;28;97181;-66
2021/04/18 00:17:41;;;;;;;2.70;1.07;;;5.60;90.00;;;7.67;79.20;102406.59;5007573;28;97245;-66
2021/04/18 00:20:12;;;;;;;0.25;0.25;;;5.60;90.00;;;7.64;79.23;102407.88;5002292;28;98098;-66
2021/04/18 00:22:42;;;;;;;0.25;0.25;;;5.60;90.00;;;7.62;79.53;102409.19;5003688;28;97024;-66
2021/04/18 00:25:15;;;;;;;0.57;0.57;;;5.60;90.10;;;7.62;79.82;102403.84;5005630;28;97109;-66
2021/04/18 00:27:50;;;;;;;1.25;0.65;;;5.50;90.00;;;7.60;79.61;102406.75;5003461;28;97291;-66
2021/04/18 00:30:22;;;;;;;1.90;1.75;;;5.50;90.00;;;7.57;79.49;102406.44;5005099;28;97976;-66
2021/04/18 00:32:51;;;;;;;0.77;0.77;;;5.50;90.00;;;7.52;79.56;102409.81;5005283;28;97757;-66
2021/04/18 00:35:20;;;;;;;1.80;1.65;;;5.50;90.10;;;7.50;79.82;102403.09;5003257;28;97155;-66
2021/04/18 00:37:49;;;;;;;4.65;0.60;;;5.40;90.10;;;7.46;79.16;102392.13;5004031;28;96888;-66
2021/04/18 00:40:22;;;;;;;1.52;1.42;;;5.40;90.10;;;7.42;79.97;102393.66;5005810;28;98417;-66
2021/04/18 00:42:51;;;;;;;26.17;3.50;;;5.40;90.10;;;7.39;79.47;102382.66;5005669;28;97655;-66
2021/04/18 00:45:21;;;;;;;1.05;1.05;;;5.30;90.10;;;7.37;79.69;102384.75;5005015;28;96889;-66
2021/04/18 00:47:52;;;;;;;0.65;0.65;;;5.30;90.10;;;7.33;79.84;102392.41;5002162;28;96957;-66
2021/04/18 00:50:26;;;;;;;2.75;1.08;;;5.30;90.10;;;7.30;79.56;102390.22;5020023;28;97907;-66
2021/04/18 00:52:54;;;;;;;0.80;0.80;;;5.20;90.10;;;7.28;79.38;102396.88;5024070;28;97534;-66
2021/04/18 00:55:28;;;;;;;0.70;0.70;;;5.20;90.10;;;7.24;80.40;102401.84;5004101;28;96708;-66
2021/04/18 00:57:56;;;;;;;0.30;0.30;;;5.20;90.20;;;7.23;80.25;102386.91;5001916;28;96999;-66
2021/04/18 01:00:26;;;;;;;1.35;0.85;;;5.10;90.20;;;7.24;79.44;102390.41;5018325;28;97908;-66
2021/04/18 01:02:55;;;;;;;1.02;0.95;;;5.20;90.30;;;7.27;79.85;102382.72;4999861;28;97658;-66
2021/04/18 01:05:24;;;;;;;0.82;0.82;;;5.20;90.20;;;7.28;79.68;102391.53;5006176;28;96772;-66
2021/04/18 01:07:53;;;;;;;3.88;1.65;;;5.10;90.20;;;7.24;79.57;102385.06;4999210;28;96907;-67
2021/04/18 01:10:22;;;;;;;0.20;0.20;;;5.10;90.20;;;7.23;79.37;102386.13;5001098;28;97870;-66
2021/04/18 01:12:51;;;;;;;4.63;1.65;;;5.10;90.20;;;7.22;79.09;102382.63;5001203;28;98853;-66
2021/04/18 01:15:20;;;;;;;2.30;0.98;;;5.00;90.20;;;7.24;79.18;102385.84;5005583;28;97273;-66
2021/04/18 01:17:48;;;;;;;2.47;0.75;;;5.00;90.30;;;7.20;79.10;102383.91;5005483;28;97145;-67
2021/04/18 01:20:21;;;;;;;1.25;1.20;;;5.00;90.30;;;7.24;79.24;102377.84;5016163;28;97910;-66
2021/04/18 01:22:55;;;;;;;1.65;1.13;;;5.00;90.30;;;7.29;79.38;102377.94;4995388;28;97440;-66
2021/04/18 01:25:41;;;;;;;0.22;0.22;;;5.10;90.30;;;7.27;79.30;102381.91;4987728;28;97099;-66
2021/04/18 01:28:16;;;;;;;0.57;0.57;;;5.00;90.20;;;7.21;79.37;102375.69;4992276;28;97185;-66
2021/04/18 01:30:44;;;;;;;5.60;0.85;;;5.10;90.30;;;7.25;78.46;102374.16;4999507;28;98168;-65
2021/04/18 01:33:11;;;;;;;0.55;0.55;;;5.00;90.20;;;7.25;78.89;102370.69;5003269;28;97950;-66
2021/04/18 01:35:46;;;;;;;2.17;1.73;;;5.00;90.20;;;7.25;78.58;102365.34;5002162;28;96785;-66
2021/04/18 01:38:18;;;;;;;1.65;1.10;;;5.00;90.20;;;7.24;79.03;102374.41;4993376;28;96770;-66
2021/04/18 01:40:46;;;;;;;2.28;0.52;;;5.00;90.20;;;7.24;78.07;102361.88;5006132;28;97864;-66
2021/04/18 01:43:18;;;;;;;0.20;0.20;;;5.00;90.30;;;7.28;78.60;102348.88;5005391;28;97718;-66
2021/04/18 01:45:50;;;;;;;0.47;0.47;;;5.00;90.30;;;7.33;78.53;102356.97;4988873;28;97159;-66
2021/04/18 01:48:19;;;;;;;0.20;0.20;;;5.00;90.30;;;7.32;78.19;102347.34;5000661;28;97411;-66
2021/04/18 01:50:51;;;;;;;2.70;1.10;;;5.00;90.20;;;7.31;78.61;102361.72;5003968;28;98947;-66
2021/04/18 01:53:21;;;;;;;2.15;0.85;;;5.00;90.20;;;7.28;77.95;102357.66;5015698;28;97202;-66
2021/04/18 01:55:52;;;;;;;1.60;1.50;;;5.00;90.20;;;7.28;77.80;102359.53;5002138;28;96628;-66
2021/04/18 01:58:21;;;;;;;0.38;0.38;;;4.90;90.20;;;7.27;79.18;102357.94;4978239;28;96929;-66
2021/04/18 02:01:24;;;;;;;1.20;1.02;;;5.00;90.30;;;7.28;78.72;102359.53;5007802;28;98203;-66
2021/04/18 02:03:53;;;;;;;0.80;0.80;;;4.90;90.50;;;7.31;77.76;102348.41;5004733;28;98338;-66
2021/04/18 02:06:21;;;;;;;0.85;0.85;;;4.90;90.30;;;7.28;77.93;102360.34;4987450;28;96888;-66
2021/04/18 02:08:57;;;;;;;0.28;0.28;;;5.00;90.30;;;7.24;78.86;102350.41;4993809;28;96856;-66
2021/04/18 02:11:37;;;;;;;0.60;0.60;;;5.00;90.20;;;7.18;79.04;102348.69;5019570;28;98571;-66
2021/04/18 02:14:10;;;;;;;2.00;0.95;;;4.90;90.20;;;7.13;79.13;102351.25;4986699;28;98098;-66
2021/04/18 02:17:04;;;;;;;0.55;0.55;;;4.80;90.10;;;7.07;78.85;102352.22;5004059;28;96664;-66
2021/04/18 02:19:33;;;;;;;4.13;1.75;;;4.80;90.20;;;7.06;78.75;102350.59;5003499;28;96718;-66
2021/04/18 02:22:02;;;;;;;1.02;1.02;;;4.80;90.30;;;7.07;78.42;102349.56;5005401;28;97867;-66
2021/04/18 02:24:34;;;;;;;1.77;1.67;;;4.80;90.30;;;7.03;79.23;102356.41;4996833;28;97700;-66
2021/04/18 02:27:05;;;;;;;0.32;0.32;;;4.80;90.30;;;7.07;78.78;102344.22;5001798;28;97139;-66
2021/04/18 02:29:37;;;;;;;1.52;1.25;;;4.80;90.40;;;7.10;78.83;102349.06;4989977;28;97045;-65
2021/04/18 02:32:13;;;;;;;2.10;1.63;;;4.80;90.30;;;7.10;78.18;102351.75;5005807;28;98771;-66
2021/04/18 02:34:50;;;;;;;5.43;2.95;;;4.80;90.40;;;7.11;78.18;102350.69;4991679;28;97571;-66
2021/04/18 02:37:18;;;;;;;0.85;0.77;;;4.80;90.40;;;7.07;78.59;102346.91;5006773;28;96767;-66
2021/04/18 02:39:47;;;;;;;0.35;0.32;;;4.70;90.40;;;7.09;78.27;102350.94;5003585;28;97045;-66
2021/04/18 02:42:16;;;;;;;0.35;0.35;;;4.80;90.50;;;7.08;78.83;102348.50;4997021;28;97004;-66
2021/04/18 02:44:44;;;;;;;1.48;0.50;;;4.80;90.40;;;7.06;78.58;102350.59;5019834;28;96860;-66
2021/04/18 02:47:12;;;;;;;1.55;0.60;;;4.80;90.40;;;7.05;78.62;102349.00;4999475;28;96765;-66
2021/04/18 02:49:48;;;;;;;2.13;0.93;;;4.70;90.40;;;7.07;78.84;102357.56;4987315;28;97769;-66
2021/04/18 02:52:16;;;;;;;0.55;0.55;;;4.70;90.40;;;7.07;78.25;102353.03;5005317;28;98363;-66
2021/04/18 02:54:44;;;;;;;0.30;0.30;;;4.70;90.40;;;7.07;78.59;102362.88;5006217;28;97760;-66
2021/04/18 02:57:17;;;;;;;0.80;0.80;;;4.70;90.40;;;6.99;78.13;102352.63;4990339;28;97203;-66
2021/04/18 02:59:45;;;;;;;0.28;0.28;;;4.70;90.40;;;6.93;78.24;102345.56;5006447;28;97271;-66
2021/04/18 03:02:14;;;;;;;5.65;2.40;;;4.70;90.30;;;6.93;77.69;102350.91;5004292;28;97809;-66
2021/04/18 03:04:47;;;;;;;1.15;1.08;;;4.60;90.30;;;6.92;78.21;102350.09;5003109;28;98290;-66
2021/04/18 03:07:14;;;;;;;1.60;1.50;;;4.60;90.40;;;6.91;78.12;102350.34;5004433;28;97118;-66
2021/04/18 03:09:43;;;;;;;1.00;0.60;;;4.50;90.40;;;6.87;78.91;102357.16;5005375;28;96818;-66
2021/04/18 03:12:12;;;;;;;1.48;1.38;;;4.50;90.40;;;6.89;78.32;102366.53;4998838;28;98010;-66
2021/04/18 03:14:46;;;;;;;0.90;0.90;;;4.50;90.50;;;7.01;78.90;102353.19;4990872;28;97673;-66
2021/04/18 03:17:18;;;;;;;0.93;0.93;;;4.50;90.50;;;7.06;78.21;102347.94;5004383;28;97610;-66
2021/04/18 03:19:51;;;;;;;0.70;0.70;;;4.50;90.60;;;7.03;77.26;102346.56;5009187;28;97167;-67
2021/04/18 03:22:19;;;;;;;2.00;1.25;;;4.60;90.50;;;6.95;78.22;102354.94;5000558;28;97828;-66
2021/04/18 03:24:47;;;;;;;1.95;0.73;;;4.50;90.40;;;6.93;77.96;102354.38;4998168;28;98477;-66
2021/04/18 03:27:18;;;;;;;1.50;1.05;;;4.50;90.40;;;6.98;77.89;102357.13;5005452;28;97443;-66
2021/04/18 03:29:53;;;;;;;0.60;0.60;;;4.50;90.40;;;7.03;77.69;102361.75;5002294;28;97009;-67
2021/04/18 03:32:22;;;;;;;14.48;1.55;;;4.50;90.50;;;7.05;77.60;102357.78;4994721;28;98075;-66
2021/04/18 03:34:54;;;;;;;0.57;0.57;;;4.50;90.50;;;7.04;78.14;102356.16;5008789;28;97944;-66
2021/04/18 03:37:22;;;;;;;0.45;0.45;;;4.50;90.50;;;6.98;77.85;102345.66;5002356;28;96717;-66
2021/04/18 03:39:50;;;;;;;0.40;0.40;;;4.50;90.50;;;6.95;78.12;102348.81;5001064;28;97324;-66
2021/04/18 03:42:18;;;;;;;2.20;0.50;;;4.50;90.40;;;6.96;78.20;102343.22;5006517;28;97952;-66
2021/04/18 03:44:47;;;;;;;0.80;0.80;;;4.50;90.40;;;6.98;77.25;102333.13;5005203;28;97674;-66
2021/04/18 03:47:16;;;;;;;0.40;0.40;;;4.50;90.50;;;6.99;78.22;102336.63;5004456;28;97185;-66
2021/04/18 03:50:04;;;;;;;0.28;0.28;;;4.50;90.50;;;6.96;77.63;102329.13;5005362;28;97275;-66
2021/04/18 03:52:49;;;;;;;0.57;0.57;;;4.50;90.50;;;6.95;78.18;102332.81;5015505;28;98839;-66
2021/04/18 03:55:19;;;;;;;0.95;0.73;;;4.40;90.40;;;6.89;77.87;102334.56;5007435;28;96873;-66
2021/04/18 03:57:47;;;;;;;0.25;0.25;;;4.40;90.40;;;6.82;77.78;102338.41;5002623;28;97184;-66
2021/04/18 04:00:18;;;;;;;7.03;2.25;;;4.40;90.40;;;6.82;77.75;102338.41;4987977;28;97069;-66
2021/04/18 04:02:46;;;;;;;1.45;0.45;;;4.40;90.40;;;6.77;78.38;102333.00;5007992;28;97236;-66
2021/04/18 04:05:19;;;;;;;0.65;0.65;;;4.30;90.40;;;6.66;78.33;102337.31;5003978;28;97685;-66
2021/04/18 04:07:47;;;;;;;0.68;0.68;;;4.30;90.40;;;6.64;78.28;102330.63;5005586;28;97259;-66
2021/04/18 04:10:15;;;;;;;1.77;1.67;;;4.30;90.50;;;6.63;78.22;102335.13;5006115;28;96775;-65
2021/04/18 04:12:47;;;;;;;3.83;1.35;;;4.20;90.50;;;6.61;78.16;102331.09;4990077;28;98367;-66
2021/04/18 04:15:16;;;;;;;1.35;1.25;;;4.20;90.50;;;6.54;78.02;102333.91;5006803;28;97764;-66
2021/04/18 04:17:46;;;;;;;14.32;3.25;;;4.20;90.50;;;6.51;78.52;102338.88;5007514;28;97166;-66
2021/04/18 04:20:42;;;;;;;0.17;0.17;;;4.20;90.60;;;6.54;78.53;102331.22;5002164;28;96900;-66
2021/04/18 04:23:45;;;;;;;1.92;1.13;;;4.10;90.60;;;6.54;77.72;102338.41;5025378;28;98204;-66
2021/04/18 04:26:13;;;;;;;0.98;0.70;;;4.20;90.60;;;6.56;78.22;102330.97;4995411;28;97101;-66
2021/04/18 04:28:40;;;;;;;3.08;1.55;;;4.10;90.70;;;6.60;77.85;102335.63;5003994;28;97405;-65
2021/04/18 04:31:08;;;;;;;5.35;0.93;;;4.10;90.70;;;6.61;78.81;102353.22;5017955;28;96926;-66
2021/04/18 04:33:38;;;;;;;2.10;0.95;;;4.10;90.70;;;6.63;78.16;102358.31;4995365;28;96942;-66
2021/04/18 04:36:08;;;;;;;2.92;1.67;;;4.10;90.70;;;6.69;77.99;102362.69;5001203;28;97681;-68
2021/04/18 04:38:36;;;;;;;0.30;0.30;;;4.20;90.70;;;6.67;79.03;102367.44;5006925;28;97210;-66
2021/04/18 04:41:05;;;;;;;2.38;1.85;;;4.20;90.70;;;6.71;78.93;102358.72;5002294;28;97194;-66
2021/04/18 04:43:33;;;;;;;2.33;2.05;;;4.20;90.70;;;6.80;77.35;102356.50;4995847;28;96922;-66
2021/04/18 04:46:04;;;;;;;3.38;1.80;;;4.20;90.70;;;6.82;78.16;102360.56;5002356;28;98284;-66
2021/04/18 04:48:32;;;;;;;2.65;1.88;;;4.20;90.70;;;6.85;77.41;102364.59;5002263;28;97084;-66
2021/04/18 04:51:01;;;;;;;0.73;0.73;;;4.20;90.70;;;6.82;77.97;102367.72;4998810;28;97178;-66
2021/04/18 04:53:32;;;;;;;2.50;1.73;;;4.30;90.70;;;6.83;78.12;102370.16;5001630;28;97025;-66
2021/04/18 04:56:03;;;;;;;0.38;0.38;;;4.30;90.70;;;6.89;77.52;102371.06;5002757;28;97645;-66
2021/04/18 04:58:31;;;;;;;1.45;1.05;;;4.30;90.70;;;6.95;77.37;102368.25;4997591;28;97299;-66
2021/04/18 05:00:59;;;;;;;0.70;0.70;;;4.30;90.70;;;7.03;77.85;102369.75;5001998;28;97194;-66
2021/04/18 05:03:30;;;;;;;5.22;1.83;;;4.30;90.70;;;7.09;77.35;102363.44;4989345;28;98395;-66
2021/04/18 05:05:58;;;;;;;0.40;0.40;;;4.40;90.80;;;7.13;76.95;102364.59;5002300;28;97662;-66
2021/04/18 05:08:26;;;;;;;0.70;0.70;;;4.40;90.80;;;7.19;77.14;102363.63;5002964;28;96977;-66
2021/04/18 05:10:54;;;;;;;1.35;0.75;;;4.50;90.70;;;7.23;76.85;102359.47;5001479;28;97377;-66
2021/04/18 05:13:22;;;;;;;1.17;0.75;;;4.50;90.70;;;7.18;77.70;102360.16;5001119;28;97890;-66
2021/04/18 05:15:50;;;;;;;0.45;0.45;;;4.50;90.70;;;7.24;77.03;102353.06;5003495;28;96872;-66
2021/04/18 05:18:17;;;;;;;1.08;0.73;;;4.60;90.60;;;7.32;76.86;102350.00;5000347;27;97194;-66
2021/04/18 05:20:46;;;;;;;0.30;0.30;;;4.60;90.60;;;7.46;77.85;102345.97;5006455;28;96856;-65
2021/04/18 05:23:14;;;;;;;0.45;0.45;;;4.70;90.60;;;7.64;77.10;102343.06;5002092;28;97747;-66
2021/04/18 05:25:42;;;;;;;0.95;0.93;;;4.80;90.60;;;7.75;76.81;102346.44;5003800;28;97714;-66
2021/04/18 05:28:10;;;;;;;1.15;0.73;;;4.90;90.50;;;7.85;76.65;102345.81;5004218;28;97261;-65
2021/04/18 05:30:37;;;;;;;0.98;0.98;;;5.00;90.40;;;7.85;76.96;102351.13;5005517;28;97495;-66
2021/04/18 05:33:07;;;;;;;0.47;0.47;;;5.10;90.40;;;7.88;77.15;102354.13;5003248;28;97598;-66
2021/04/18 05:35:36;;;;;;;1.30;1.20;;;5.10;90.40;;;7.92;76.37;102355.25;4977825;28;97779;-66
2021/04/18 05:38:04;;;;;;;1.23;1.13;;;5.10;90.30;;;7.96;76.73;102356.38;5003966;28;97328;-65
2021/04/18 05:40:32;;;;;;;0.50;0.50;;;5.20;90.30;;;7.98;76.39;102346.28;4999289;28;96776;-65
2021/04/18 05:43:01;;;;;;;0.68;0.65;;;5.20;90.30;;;7.91;77.38;102352.81;5004089;28;97666;-65
2021/04/18 05:45:31;;;;;;;0.68;0.68;;;5.20;90.30;;;7.79;77.19;102358.25;5005886;28;97720;-65
2021/04/18 05:47:59;;;;;;;2.88;1.60;;;5.20;90.40;;;7.79;77.17;102363.59;4999484;28;97171;-65
2021/04/18 05:50:27;;;;;;;1.50;1.40;;;5.10;90.40;;;7.99;77.33;102363.91;4995470;28;97127;-65
2021/04/18 05:52:54;;;;;;;0.55;0.52;;;5.20;90.60;;;8.05;77.37;102373.59;5003283;28;98100;-65
2021/04/18 05:55:22;;;;;;;0.68;0.68;;;5.20;90.50;;;8.16;76.89;102378.03;5000546;28;98241;-66
2021/04/18 05:57:49;;;;;;;0.55;0.55;;;5.30;90.50;;;8.15;77.30;102370.25;4995438;28;97180;-66
2021/04/18 06:00:21;;;;;;;0.38;0.38;;;5.30;90.50;;;8.19;76.80;102369.56;4995297;28;97171;-66
2021/04/18 06:02:49;;;;;;;2.25;1.73;;;5.40;90.50;;;8.25;76.58;102363.25;5009305;28;98043;-65
2021/04/18 06:05:17;;;;;;;0.93;0.88;;;5.40;90.50;;;8.25;77.11;102357.91;5004806;28;97459;-66
2021/04/18 06:07:45;;;;;;;0.65;0.65;;;5.50;90.50;;;8.36;76.81;102366.84;5009300;28;97207;-65
2021/04/18 06:10:14;;;;;;;0.80;0.80;;;5.50;90.50;;;8.39;76.54;102374.38;5004618;28;97361;-65
2021/04/18 06:12:42;;;;;;;1.60;1.50;;;5.50;90.50;;;8.44;76.76;102380.59;5007423;28;96887;-65
2021/04/18 06:15:11;;;;;;;7.20;0.68;;;5.50;90.50;;;8.63;76.18;102381.91;5005051;28;97889;-65
2021/04/18 06:17:39;;;;;;;2.17;1.75;;;5.60;90.60;;;8.78;76.36;102371.41;5003668;28;97227;-65
2021/04/18 06:20:09;;;;;;;1.15;1.05;;;5.70;90.60;;;8.93;75.71;102370.78;5007178;28;97743;-65
2021/04/18 06:22:37;;;;;;;0.60;0.60;;;5.80;90.50;;;9.04;75.61;102370.63;5003734;28;96929;-65
2021/04/18 06:25:07;;;;;;;1.20;1.08;;;5.90;90.50;;;9.06;75.64;102375.72;5007762;28;96782;-66
2021/04/18 06:27:35;;;;;;;0.40;0.40;;;6.00;90.40;;;9.05;75.76;102374.91;5007913;28;97271;-65
2021/04/18 06:30:07;;;;;;;0.57;0.50;;;6.00;90.40;;;9.07;75.66;102371.97;5004093;28;96846;-65
2021/04/18 06:32:35;;;;;;;7.05;0.60;;;6.10;90.40;;;9.07;76.08;102362.09;5008278;28;97852;-66
2021/04/18 06:35:09;;;;;;;1.40;1.17;;;6.10;90.50;;;9.10;76.35;102360.78;5006436;28;98170;-65
2021/04/18 06:37:37;;;;;;;1.17;1.10;;;6.10;90.50;;;9.19;76.32;102365.41;5009199;28;97117;-66
2021/04/18 06:40:08;;;;;;;1.55;0.93;;;6.20;90.50;;;9.38;76.08;102354.09;5006487;28;97383;-65
2021/04/18 06:42:39;;;;;;;2.88;1.70;;;6.30;90.60;;;9.74;75.25;102357.88;5003078;28;97688;-66
2021/04/18 06:45:10;;;;;;;2.90;0.68;;;6.40;90.50;;;9.98;74.83;102375.19;5006227;28;97693;-65
2021/04/18 06:47:40;;;;;;;6.22;1.60;;;6.60;90.30;;;9.98;74.77;102375.97;5006703;28;97300;-65
2021/04/18 06:50:11;;;;;;;0.70;0.70;;;6.80;90.30;;;9.90;75.50;102378.31;4990298;28;97424;-66
2021/04/18 06:52:48;;;;;;;1.00;0.95;;;6.90;90.20;;;9.83;76.03;102383.09;5008673;28;97773;-66
2021/04/18 06:55:17;;;;;;;1.15;1.05;;;6.90;90.20;;;9.82;76.23;102378.81;5004894;28;97707;-66
2021/04/18 06:57:45;;;;;;;1.33;1.25;;;6.90;90.30;;;9.83;76.38;102378.56;4975813;28;96722;-65
2021/04/18 07:00:16;;;;;;;3.80;3.03;;;7.00;90.30;;;9.84;76.42;102384.72;5005515;28;97686;-66
2021/04/18 07:02:44;;;;;;;4.95;1.50;;;7.00;90.30;;;9.85;76.43;102376.44;5001055;28;97031;-66
2021/04/18 07:05:16;;;;;;;1.88;1.10;;;7.00;90.30;;;9.94;76.33;102380.25;5004874;28;97006;-65
2021/04/18 07:07:48;;;;;;;4.78;2.90;;;7.10;90.30;;;10.00;76.42;102378.41;5000593;28;97191;-66
2021/04/18 07:10:28;;;;;;;7.32;4.68;;;7.10;90.40;;;10.11;76.13;102382.78;5008078;28;97712;-66
2021/04/18 07:13:06;;;;;;;11.23;2.90;;;7.10;90.40;;;10.16;76.11;102378.28;5004626;28;98572;-66
2021/04/18 07:15:38;;;;;;;4.00;2.78;;;7.20;90.40;;;10.23;75.89;102380.75;5004314;28;97920;-66
2021/04/18 07:18:07;;;;;;;8.00;3.33;;;7.20;90.40;;;10.28;75.92;102381.56;5006149;28;97328;-65
2021/04/18 07:20:52;;;;;;;1.92;1.83;;;7.30;90.40;;;10.31;76.23;102391.75;5007285;28;97319;-65
2021/04/18 07:23:28;;;;;;;2.65;2.15;;;7.30;90.40;;;10.41;75.81;102388.34;4988006;28;98363;-66
2021/04/18 07:25:58;;;;;;;3.55;3.10;;;7.40;90.40;;;10.42;76.26;102393.44;4987977;28;99410;-66
2021/04/18 07:28:29;;;;;;;2.10;1.95;;;7.50;90.40;;;10.37;76.28;102390.75;5006129;28;97330;-67
2021/04/18 07:31:02;;;;;;;1.17;0.98;;;7.50;90.40;;;10.31;76.86;102380.25;5001629;28;97002;-67
2021/04/18 07:33:30;;;;;;;2.13;1.70;;;7.50;90.40;;;10.23;77.06;102376.19;5004484;28;97251;-67
2021/04/18 07:35:59;;;;;;;1.95;1.85;;;7.50;90.50;;;10.26;77.15;102375.66;5000149;28;97212;-68
2021/04/18 07:38:29;;;;;;;2.72;1.95;;;7.50;90.50;;;10.36;76.75;102375.75;5003676;28;96911;-67
2021/04/18 07:41:16;;;;;;;4.45;1.85;;;7.60;90.50;;;10.71;76.21;102370.53;4999508;28;96810;-67
2021/04/18 07:43:45;;;;;;;4.97;0.90;;;7.70;90.50;;;11.17;75.26;102374.94;5002123;28;97893;-67
2021/04/18 07:46:15;;;;;;;3.38;1.30;;;7.90;90.30;;;11.57;73.93;102365.09;5001116;28;96787;-67
2021/04/18 07:48:44;;;;;;;1.35;1.17;;;8.10;90.10;;;11.80;73.47;102364.56;4998718;28;97126;-67
2021/04/18 07:51:14;;;;;;;2.28;2.08;;;8.40;90.00;;;12.08;73.16;102358.59;5005376;28;97583;-67
2021/04/18 07:53:42;;;;;;;2.33;1.15;;;8.60;89.90;;;13.62;69.19;102357.00;4996156;28;97765;-66
2021/04/18 07:56:11;;;;;;;0.68;0.68;;;9.00;89.80;;;15.00;65.38;102354.94;4998758;28;96766;-67
2021/04/18 07:58:40;;;;;;;5.97;1.98;;;9.60;89.00;;;14.76;67.20;102357.69;4996519;28;97487;-68
2021/04/18 08:01:10;;;;;;;1.63;1.42;;;10.10;88.00;;;14.82;68.00;102345.72;4997096;28;97480;-67
2021/04/18 08:03:43;;;;;;;3.50;2.15;;;10.40;87.80;;;14.14;70.30;102351.66;5002696;28;97695;-66
2021/04/18 08:06:18;;;;;;;5.13;2.45;;;10.50;87.90;;;13.68;72.28;102338.91;4999423;28;97349;-66
2021/04/18 08:08:51;;;;;;;5.10;2.53;;;10.50;88.40;;;13.38;73.73;102334.59;5001497;28;96881;-67
2021/04/18 08:11:23;;;;;;;6.68;4.05;;;10.40;89.40;;;13.39;74.09;102335.38;5000391;28;97525;-67
2021/04/18 08:13:55;;;;;;;1.92;1.83;;;10.40;89.10;;;13.35;74.35;102339.72;5001347;28;97371;-66
2021/04/18 08:16:30;;;;;;;8.82;3.08;;;10.40;89.50;;;13.24;74.51;102336.28;4996988;28;99092;-66
2021/04/18 08:19:09;;;;;;;3.20;2.83;;;10.30;89.70;;;13.25;74.98;102337.13;4998107;28;97066;-67
2021/04/18 08:21:43;;;;;;;3.83;1.70;;;10.30;89.90;;;13.54;74.25;102336.06;4989243;28;97204;-68
2021/04/18 08:24:35;;;;;;;;;;;10.40;90.00;;;13.89;73.06;102334.94;5003693;28;98459;-67
2021/04/18 08:27:08;;;;;;;0.88;0.82;;;10.50;89.90;;;13.60;73.94;102339.53;5004043;28;97675;-67
2021/04/18 08:30:02;;;;;;;0.45;0.45;;;10.50;89.70;;;13.56;74.60;102346.56;5016124;28;97115;-67
2021/04/18 08:32:46;;;;;;;0.90;0.77;;;10.60;89.70;;;13.74;74.10;102343.16;4996854;28;97177;-67
2021/04/18 08:35:20;;;;;;;2.35;1.85;;;10.70;89.70;;;14.18;73.35;102345.44;4996837;28;98050;-67
2021/04/18 08:38:19;;;;;;;1.77;1.02;;;10.90;89.40;;;14.87;71.07;102339.47;4995440;28;98005;-67
2021/04/18 08:41:03;;;;;;;2.03;1.33;;;11.20;88.80;;;15.76;69.56;102334.56;4985223;28;96864;-67
2021/04/18 08:43:33;;;;;;;1.85;1.40;;;11.60;88.20;;;18.18;62.18;102333.91;5000180;28;96940;-67
2021/04/18 08:46:03;;;;;;;0.88;0.80;;;12.20;87.40;;;17.91;63.66;102333.34;4997408;28;97380;-67
2021/04/18 08:48:32;;;;;;;5.85;2.22;;;12.70;86.70;;;18.13;64.11;102333.25;5015109;28;97723;-67
2021/04/18 08:51:04;;;;;;;2.78;2.28;;;13.10;86.50;;;18.20;64.87;102330.91;4996321;28;97194;-68
2021/04/18 08:56:44;;;;;;;3.13;1.77;;;13.50;86.00;;;17.95;67.44;102324.25;5063636;27;97029;-65
2021/04/18 08:59:13;;;;;;;1.95;1.38;;;14.20;85.70;;;17.68;68.84;102327.13;5045654;27;97862;-65
2021/04/18 09:02:00;;;;;;;3.90;2.00;;;14.20;85.50;;;17.82;68.88;102318.91;5060244;27;97996;-65
2021/04/18 09:04:35;;;;;;;3.72;1.73;;;14.30;85.70;;;17.80;68.85;102319.25;5057697;27;97661;-65
2021/04/18 09:07:09;;;;;;;0.68;0.68;;;14.30;85.80;;;17.64;69.54;102328.06;5041680;27;96947;-65
2021/04/18 09:09:37;;;;;;;14.57;1.52;;;14.30;85.80;;;17.34;71.04;102324.19;5027387;27;98237;-65
2021/04/18 09:12:09;;;;;;;2.97;1.90;;;14.30;86.10;;;17.15;71.13;102320.03;5027606;27;97338;-65
2021/04/18 09:14:42;;;;;;;1.42;1.33;;;14.20;86.20;;;17.00;71.62;102327.72;5044431;27;99164;-65
2021/04/18 09:17:15;;;;;;;1.92;1.42;;;14.10;86.20;;;16.81;72.69;102321.63;5059498;27;97211;-65
2021/04/18 09:19:48;;;;;;;;;;;14.00;86.50;;;16.94;72.36;102328.94;5043797;27;97653;-65
2021/04/18 09:22:19;;;;;;;4.43;1.40;;;13.90;86.80;;;17.16;71.67;102326.28;5043398;27;100071;-65
2021/04/18 09:24:55;;;;;;;2.10;1.35;;;13.90;86.90;;;17.57;70.09;102317.66;5041434;27;97263;-65
2021/04/18 09:27:27;;;;;;;1.23;1.05;;;14.10;86.80;;;18.02;69.30;102324.63;5042764;27;97813;-65
2021/04/18 09:29:58;;;;;;;4.30;1.52;;;14.30;86.50;;;18.37;68.29;102312.81;5042783;27;97331;-65
2021/04/18 09:32:29;;;;;;;1.95;1.42;;;14.50;86.10;;;18.74;67.73;102314.13;5044507;27;98056;-65
2021/04/18 09:34:58;;;;;;;1.85;0.63;;;14.80;85.80;;;19.02;67.52;102313.53;5042388;27;97303;-65
2021/04/18 09:37:30;;;;;;;1.25;1.15;;;15.00;85.40;;;19.20;67.10;102306.97;5043274;27;97435;-65
2021/04/18 09:40:05;;;;;;;3.07;2.00;;;15.30;85.10;;;19.40;67.14;102309.03;5042903;27;98226;-66
2021/04/18 09:42:39;;;;;;;2.30;1.10;;;15.50;85.00;;;19.54;67.33;102306.97;5038261;27;97898;-66
2021/04/18 09:45:14;;;;;;;2.13;1.83;;;15.70;84.70;;;19.59;67.33;102310.28;5022504;27;97104;-66
2021/04/18 09:47:46;;;;;;;3.17;2.35;;;15.90;84.80;;;19.64;68.26;102304.66;5042880;27;97949;-66
2021/04/18 09:50:25;;;;;;;4.45;1.83;;;16.00;84.80;;;19.80;67.56;102307.66;5043286;27;97223;-66
2021/04/18 09:52:53;;;;;;;4.43;1.80;;;16.20;84.60;;;20.13;67.49;102298.59;5044419;27;97163;-66
2021/04/18 09:55:26;;;;;;;1.77;0.55;;;16.40;84.60;;;20.64;65.95;102298.31;5017940;27;97717;-66
2021/04/18 09:57:57;;;;;;;1.95;1.20;;;16.60;84.30;;;21.25;65.01;102301.03;5051047;27;97238;-66
2021/04/18 10:00:35;;;;;;;4.03;1.45;;;16.90;84.20;;;21.69;64.55;102292.09;5041020;27;97180;-66
2021/04/18 10:03:12;;;;;;;4.47;1.73;;;17.30;83.90;;;22.10;64.74;102289.19;5041477;27;98771;-66
2021/04/18 10:05:59;;;;;;;0.63;0.57;;;17.60;83.70;;;22.60;63.75;102289.63;5040025;27;97270;-66
2021/04/18 10:08:31;;;;;;;1.08;0.93;;;18.20;83.00;;;22.70;64.42;102289.16;5028319;27;97021;-66
2021/04/18 10:11:18;;;;;;;9.13;1.13;;;18.50;82.80;;;22.62;65.24;102292.81;5027223;27;97515;-67
2021/04/18 10:13:49;;;;;;;1.42;1.17;;;18.80;82.10;;;22.56;65.37;102280.53;5028573;27;98579;-67
2021/04/18 10:16:24;;;;;;;2.05;0.95;;;18.80;82.00;;;22.48;65.82;102286.91;5029168;28;98729;-66
2021/04/18 10:19:15;;;;;;;18.65;1.38;;;18.80;81.90;;;22.35;65.93;102277.13;5030333;28;97273;-66
2021/04/18 10:21:46;;;;;;;3.85;1.20;;;18.80;81.60;;;22.46;65.95;102270.88;5030352;28;97329;-66
2021/04/18 10:24:36;;;;;;;0.93;0.57;;;18.70;82.30;;;22.61;65.74;102272.88;5026424;28;97944;-66
2021/04/18 10:27:21;;;;;;;3.47;1.23;;;18.80;82.00;;;22.95;65.10;102282.47;5027371;28;98076;-67
2021/04/18 10:29:50;;;;;;;2.83;1.25;;;18.90;82.20;;;23.06;65.37;102280.81;5029914;27;97365;-67
2021/04/18 10:32:21;;;;;;;3.20;1.00;;;19.10;82.10;;;23.16;65.01;102274.91;5030322;27;97370;-66
2021/04/18 10:34:52;;;;;;;2.45;1.58;;;19.20;81.90;;;23.24;65.02;102274.72;5029287;28;97259;-67
2021/04/18 10:37:21;;;;;;;2.97;1.63;;;19.30;81.80;;;23.36;64.90;102276.63;5028673;28;98480;-66
2021/04/18 10:39:48;;;;;;;6.63;1.58;;;19.40;81.60;;;23.46;64.78;102267.91;5028954;28;97424;-67
2021/04/18 10:42:17;;;;;;;3.70;1.13;;;19.50;81.60;;;23.42;65.11;102272.47;5028403;27;97231;-67
2021/04/18 10:44:45;;;;;;;2.40;1.25;;;19.60;81.50;;;23.27;65.52;102273.25;5041782;27;98258;-66